sensor_id;sensor_type;location;lat;lon;timestamp;temperature;humidity
68248;SHT30;55064;49.636;12.164;2023-05-16T00:01:18;9.97;96.65
68248;SHT30;55064;49.636;12.164;2023-05-16T00:03:43;10.00;96.55
68248;SHT30;55064;49.636;12.164;2023-05-16T00:06:12;9.89;96.62
68248;SHT30;55064;49.636;12.164;2023-05-16T00:08:41;9.89;96.40
68248;SHT30;55064;49.636;12.164;2023-05-16T00:11:06;9.79;97.03
68248;SHT30;55064;49.636;12.164;2023-05-16T00:13:31;9.82;96.62
68248;SHT30;55064;49.636;12.164;2023-05-16T00:15:57;9.83;96.41
68248;SHT30;55064;49.636;12.164;2023-05-16T00:18:26;9.75;96.80
68248;SHT30;55064;49.636;12.164;2023-05-16T00:20:52;9.66;96.83
68248;SHT30;55064;49.636;12.164;2023-05-16T00:23:19;9.50;97.46
68248;SHT30;55064;49.636;12.164;2023-05-16T00:25:47;9.43;97.54
68248;SHT30;55064;49.636;12.164;2023-05-16T00:28:13;9.49;97.48
68248;SHT30;55064;49.636;12.164;2023-05-16T00:30:38;9.50;97.24
68248;SHT30;55064;49.636;12.164;2023-05-16T00:33:04;9.49;96.89
68248;SHT30;55064;49.636;12.164;2023-05-16T00:35:32;9.52;97.01
68248;SHT30;55064;49.636;12.164;2023-05-16T00:37:58;9.46;97.15
68248;SHT30;55064;49.636;12.164;2023-05-16T00:40:23;9.45;96.93
68248;SHT30;55064;49.636;12.164;2023-05-16T00:42:48;9.43;97.00
68248;SHT30;55064;49.636;12.164;2023-05-16T00:45:17;9.39;97.05
68248;SHT30;55064;49.636;12.164;2023-05-16T00:47:43;9.25;97.22
68248;SHT30;55064;49.636;12.164;2023-05-16T00:50:09;9.15;97.63
68248;SHT30;55064;49.636;12.164;2023-05-16T00:52:36;9.20;97.41
68248;SHT30;55064;49.636;12.164;2023-05-16T00:55:03;9.28;96.95
68248;SHT30;55064;49.636;12.164;2023-05-16T00:57:29;9.27;96.98
68248;SHT30;55064;49.636;12.164;2023-05-16T00:59:55;9.27;96.86
68248;SHT30;55064;49.636;12.164;2023-05-16T01:02:20;9.24;96.47
68248;SHT30;55064;49.636;12.164;2023-05-16T01:04:47;9.24;96.29
68248;SHT30;55064;49.636;12.164;2023-05-16T01:07:14;9.22;96.18
68248;SHT30;55064;49.636;12.164;2023-05-16T01:09:42;9.21;95.51
68248;SHT30;55064;49.636;12.164;2023-05-16T01:23:18;9.10;96.63
68248;SHT30;55064;49.636;12.164;2023-05-16T01:25:55;9.11;96.24
68248;SHT30;55064;49.636;12.164;2023-05-16T01:28:21;9.10;96.12
68248;SHT30;55064;49.636;12.164;2023-05-16T01:30:50;9.05;95.99
68248;SHT30;55064;49.636;12.164;2023-05-16T01:33:17;9.03;95.64
68248;SHT30;55064;49.636;12.164;2023-05-16T01:36:10;8.96;95.45
68248;SHT30;55064;49.636;12.164;2023-05-16T01:38:39;8.91;95.57
68248;SHT30;55064;49.636;12.164;2023-05-16T01:43:50;8.79;95.69
68248;SHT30;55064;49.636;12.164;2023-05-16T01:46:42;8.73;96.44
68248;SHT30;55064;49.636;12.164;2023-05-16T01:51:49;8.56;97.34
68248;SHT30;55064;49.636;12.164;2023-05-16T01:54:18;8.55;98.06
68248;SHT30;55064;49.636;12.164;2023-05-16T01:56:52;8.50;97.92
68248;SHT30;55064;49.636;12.164;2023-05-16T01:59:20;8.55;98.05
68248;SHT30;55064;49.636;12.164;2023-05-16T02:01:46;8.58;97.58
68248;SHT30;55064;49.636;12.164;2023-05-16T02:04:12;8.63;97.02
68248;SHT30;55064;49.636;12.164;2023-05-16T02:06:39;8.65;97.06
68248;SHT30;55064;49.636;12.164;2023-05-16T02:09:05;8.63;96.85
68248;SHT30;55064;49.636;12.164;2023-05-16T02:11:32;8.56;96.22
68248;SHT30;55064;49.636;12.164;2023-05-16T02:14:00;8.49;96.41
68248;SHT30;55064;49.636;12.164;2023-05-16T02:16:31;8.46;96.59
68248;SHT30;55064;49.636;12.164;2023-05-16T02:18:56;8.48;97.01
68248;SHT30;55064;49.636;12.164;2023-05-16T02:21:21;8.44;97.21
68248;SHT30;55064;49.636;12.164;2023-05-16T02:23:47;8.48;96.89
68248;SHT30;55064;49.636;12.164;2023-05-16T02:26:16;8.50;96.43
68248;SHT30;55064;49.636;12.164;2023-05-16T02:28:41;8.49;96.37
68248;SHT30;55064;49.636;12.164;2023-05-16T02:31:09;8.41;96.41
68248;SHT30;55064;49.636;12.164;2023-05-16T02:33:34;8.44;96.09
68248;SHT30;55064;49.636;12.164;2023-05-16T02:36:00;8.39;96.25
68248;SHT30;55064;49.636;12.164;2023-05-16T02:38:25;8.34;96.67
68248;SHT30;55064;49.636;12.164;2023-05-16T02:40:52;8.18;97.62
68248;SHT30;55064;49.636;12.164;2023-05-16T02:43:21;8.11;97.67
68248;SHT30;55064;49.636;12.164;2023-05-16T02:45:47;7.93;98.24
68248;SHT30;55064;49.636;12.164;2023-05-16T02:48:15;7.82;98.99
68248;SHT30;55064;49.636;12.164;2023-05-16T02:50:43;7.84;98.63
68248;SHT30;55064;49.636;12.164;2023-05-16T02:53:08;7.87;98.56
68248;SHT30;55064;49.636;12.164;2023-05-16T02:55:36;7.98;98.05
68248;SHT30;55064;49.636;12.164;2023-05-16T02:58:02;8.01;97.72
68248;SHT30;55064;49.636;12.164;2023-05-16T03:00:28;8.10;97.11
68248;SHT30;55064;49.636;12.164;2023-05-16T03:02:55;8.11;96.99
68248;SHT30;55064;49.636;12.164;2023-05-16T03:05:24;8.14;96.92
68248;SHT30;55064;49.636;12.164;2023-05-16T03:07:49;8.08;96.92
68248;SHT30;55064;49.636;12.164;2023-05-16T03:10:16;8.04;96.33
68248;SHT30;55064;49.636;12.164;2023-05-16T03:12:43;8.00;96.22
68248;SHT30;55064;49.636;12.164;2023-05-16T03:15:09;7.89;95.92
68248;SHT30;55064;49.636;12.164;2023-05-16T03:17:34;7.87;96.33
68248;SHT30;55064;49.636;12.164;2023-05-16T03:20:06;7.87;96.52
68248;SHT30;55064;49.636;12.164;2023-05-16T03:22:35;7.86;96.84
68248;SHT30;55064;49.636;12.164;2023-05-16T03:25:01;7.90;97.04
68248;SHT30;55064;49.636;12.164;2023-05-16T03:27:26;7.94;97.21
68248;SHT30;55064;49.636;12.164;2023-05-16T03:29:52;7.95;97.31
68248;SHT30;55064;49.636;12.164;2023-05-16T03:32:17;7.95;97.19
68248;SHT30;55064;49.636;12.164;2023-05-16T03:34:42;7.91;97.12
68248;SHT30;55064;49.636;12.164;2023-05-16T03:37:08;7.94;97.69
68248;SHT30;55064;49.636;12.164;2023-05-16T03:39:39;7.87;98.14
68248;SHT30;55064;49.636;12.164;2023-05-16T03:42:09;7.87;98.66
68248;SHT30;55064;49.636;12.164;2023-05-16T03:44:37;7.89;98.02
68248;SHT30;55064;49.636;12.164;2023-05-16T03:47:06;7.89;98.14
68248;SHT30;55064;49.636;12.164;2023-05-16T03:49:31;7.89;98.09
68248;SHT30;55064;49.636;12.164;2023-05-16T03:51:58;7.90;98.17
68248;SHT30;55064;49.636;12.164;2023-05-16T03:54:24;7.93;97.91
68248;SHT30;55064;49.636;12.164;2023-05-16T03:56:50;8.00;97.81
68248;SHT30;55064;49.636;12.164;2023-05-16T03:59:15;7.98;97.74
68248;SHT30;55064;49.636;12.164;2023-05-16T04:01:41;8.00;97.17
68248;SHT30;55064;49.636;12.164;2023-05-16T04:04:07;7.95;97.38
68248;SHT30;55064;49.636;12.164;2023-05-16T04:06:35;7.90;97.34
68248;SHT30;55064;49.636;12.164;2023-05-16T04:09:03;7.91;96.99
68248;SHT30;55064;49.636;12.164;2023-05-16T04:11:28;7.89;96.70
68248;SHT30;55064;49.636;12.164;2023-05-16T04:13:55;7.83;96.15
68248;SHT30;55064;49.636;12.164;2023-05-16T04:16:22;7.79;96.33
68248;SHT30;55064;49.636;12.164;2023-05-16T04:18:47;7.82;96.43
68248;SHT30;55064;49.636;12.164;2023-05-16T04:21:12;7.84;96.38
68248;SHT30;55064;49.636;12.164;2023-05-16T04:23:40;7.80;96.93
68248;SHT30;55064;49.636;12.164;2023-05-16T04:26:08;7.93;96.33
68248;SHT30;55064;49.636;12.164;2023-05-16T04:28:33;7.98;96.38
68248;SHT30;55064;49.636;12.164;2023-05-16T04:30:59;8.03;96.38
68248;SHT30;55064;49.636;12.164;2023-05-16T04:33:26;8.05;96.35
68248;SHT30;55064;49.636;12.164;2023-05-16T04:35:51;8.14;95.92
68248;SHT30;55064;49.636;12.164;2023-05-16T04:38:19;8.17;95.81
68248;SHT30;55064;49.636;12.164;2023-05-16T04:40:45;8.24;95.40
68248;SHT30;55064;49.636;12.164;2023-05-16T04:43:10;8.29;95.38
68248;SHT30;55064;49.636;12.164;2023-05-16T04:45:35;8.29;95.41
68248;SHT30;55064;49.636;12.164;2023-05-16T04:48:01;8.34;95.02
68248;SHT30;55064;49.636;12.164;2023-05-16T04:50:26;8.32;95.21
68248;SHT30;55064;49.636;12.164;2023-05-16T04:52:51;8.37;95.20
68248;SHT30;55064;49.636;12.164;2023-05-16T04:55:19;8.39;95.04
68248;SHT30;55064;49.636;12.164;2023-05-16T04:57:45;8.44;95.10
68248;SHT30;55064;49.636;12.164;2023-05-16T05:00:11;8.49;95.15
68248;SHT30;55064;49.636;12.164;2023-05-16T05:02:37;8.52;94.95
68248;SHT30;55064;49.636;12.164;2023-05-16T05:05:05;8.56;94.82
68248;SHT30;55064;49.636;12.164;2023-05-16T05:07:36;8.59;94.73
68248;SHT30;55064;49.636;12.164;2023-05-16T05:10:02;8.56;94.87
68248;SHT30;55064;49.636;12.164;2023-05-16T05:12:29;8.56;94.39
68248;SHT30;55064;49.636;12.164;2023-05-16T05:14:54;8.60;94.59
68248;SHT30;55064;49.636;12.164;2023-05-16T05:17:21;8.62;94.78
68248;SHT30;55064;49.636;12.164;2023-05-16T05:19:49;8.65;94.51
68248;SHT30;55064;49.636;12.164;2023-05-16T05:22:14;8.72;94.37
68248;SHT30;55064;49.636;12.164;2023-05-16T05:24:41;8.88;94.12
68248;SHT30;55064;49.636;12.164;2023-05-16T05:27:08;9.05;93.72
68248;SHT30;55064;49.636;12.164;2023-05-16T05:29:33;9.18;92.88
68248;SHT30;55064;49.636;12.164;2023-05-16T05:31:58;9.34;92.77
68248;SHT30;55064;49.636;12.164;2023-05-16T05:34:26;9.49;92.20
68248;SHT30;55064;49.636;12.164;2023-05-16T05:36:53;9.59;91.92
68248;SHT30;55064;49.636;12.164;2023-05-16T05:39:19;9.65;91.31
68248;SHT30;55064;49.636;12.164;2023-05-16T05:41:44;9.72;90.98
68248;SHT30;55064;49.636;12.164;2023-05-16T05:44:12;9.76;91.46
68248;SHT30;55064;49.636;12.164;2023-05-16T05:46:38;9.77;91.60
68248;SHT30;55064;49.636;12.164;2023-05-16T05:49:05;9.63;91.78
68248;SHT30;55064;49.636;12.164;2023-05-16T05:51:33;9.79;91.49
68248;SHT30;55064;49.636;12.164;2023-05-16T05:54:01;9.97;90.66
68248;SHT30;55064;49.636;12.164;2023-05-16T05:56:27;10.03;90.79
68248;SHT30;55064;49.636;12.164;2023-05-16T05:58:53;10.17;90.64
68248;SHT30;55064;49.636;12.164;2023-05-16T06:01:21;10.31;90.47
68248;SHT30;55064;49.636;12.164;2023-05-16T06:03:47;10.42;90.31
68248;SHT30;55064;49.636;12.164;2023-05-16T06:06:16;10.48;90.14
68248;SHT30;55064;49.636;12.164;2023-05-16T06:08:41;10.56;90.64
68248;SHT30;55064;49.636;12.164;2023-05-16T06:11:08;10.53;90.76
68248;SHT30;55064;49.636;12.164;2023-05-16T06:13:33;10.70;90.58
68248;SHT30;55064;49.636;12.164;2023-05-16T06:15:59;10.70;90.26
68248;SHT30;55064;49.636;12.164;2023-05-16T06:18:26;10.92;90.22
68248;SHT30;55064;49.636;12.164;2023-05-16T06:20:53;11.00;90.60
68248;SHT30;55064;49.636;12.164;2023-05-16T06:23:18;11.34;89.40
68248;SHT30;55064;49.636;12.164;2023-05-16T06:25:44;11.69;89.10
68248;SHT30;55064;49.636;12.164;2023-05-16T06:28:09;11.90;87.84
68248;SHT30;55064;49.636;12.164;2023-05-16T06:30:37;12.09;87.01
68248;SHT30;55064;49.636;12.164;2023-05-16T06:33:05;12.26;87.24
68248;SHT30;55064;49.636;12.164;2023-05-16T06:35:30;12.55;85.83
68248;SHT30;55064;49.636;12.164;2023-05-16T06:37:56;12.78;84.97
68248;SHT30;55064;49.636;12.164;2023-05-16T06:40:21;12.75;83.05
68248;SHT30;55064;49.636;12.164;2023-05-16T06:42:47;12.76;83.05
68248;SHT30;55064;49.636;12.164;2023-05-16T06:45:12;12.86;83.56
68248;SHT30;55064;49.636;12.164;2023-05-16T06:47:37;12.99;83.64
68248;SHT30;55064;49.636;12.164;2023-05-16T06:50:10;13.03;83.01
68248;SHT30;55064;49.636;12.164;2023-05-16T06:52:36;13.06;82.56
68248;SHT30;55064;49.636;12.164;2023-05-16T06:55:03;13.11;82.60
68248;SHT30;55064;49.636;12.164;2023-05-16T06:57:30;13.20;82.42
68248;SHT30;55064;49.636;12.164;2023-05-16T06:59:55;13.28;81.17
68248;SHT30;55064;49.636;12.164;2023-05-16T07:02:23;13.36;81.95
68248;SHT30;55064;49.636;12.164;2023-05-16T07:04:48;13.43;82.22
68248;SHT30;55064;49.636;12.164;2023-05-16T07:07:13;13.54;81.54
68248;SHT30;55064;49.636;12.164;2023-05-16T07:09:39;13.61;80.40
68248;SHT30;55064;49.636;12.164;2023-05-16T07:12:05;13.69;78.40
68248;SHT30;55064;49.636;12.164;2023-05-16T07:14:30;13.74;77.42
68248;SHT30;55064;49.636;12.164;2023-05-16T07:16:58;13.76;76.87
68248;SHT30;55064;49.636;12.164;2023-05-16T07:19:26;13.68;75.51
68248;SHT30;55064;49.636;12.164;2023-05-16T07:21:51;13.79;76.13
68248;SHT30;55064;49.636;12.164;2023-05-16T07:24:17;13.75;75.88
68248;SHT30;55064;49.636;12.164;2023-05-16T07:26:45;13.78;74.82
68248;SHT30;55064;49.636;12.164;2023-05-16T07:29:11;13.75;76.91
68248;SHT30;55064;49.636;12.164;2023-05-16T07:31:36;13.82;75.87
68248;SHT30;55064;49.636;12.164;2023-05-16T07:34:01;13.76;75.97
68248;SHT30;55064;49.636;12.164;2023-05-16T07:36:27;13.87;75.36
68248;SHT30;55064;49.636;12.164;2023-05-16T07:38:52;13.92;75.20
68248;SHT30;55064;49.636;12.164;2023-05-16T07:41:21;14.03;75.79
68248;SHT30;55064;49.636;12.164;2023-05-16T07:43:46;14.20;75.19
68248;SHT30;55064;49.636;12.164;2023-05-16T07:46:12;14.26;74.87
68248;SHT30;55064;49.636;12.164;2023-05-16T07:48:38;14.40;75.05
68248;SHT30;55064;49.636;12.164;2023-05-16T07:51:06;14.48;73.90
68248;SHT30;55064;49.636;12.164;2023-05-16T07:53:32;14.52;73.71
68248;SHT30;55064;49.636;12.164;2023-05-16T07:55:58;14.58;73.37
68248;SHT30;55064;49.636;12.164;2023-05-16T07:58:23;14.67;72.27
68248;SHT30;55064;49.636;12.164;2023-05-16T08:00:49;14.76;72.59
68248;SHT30;55064;49.636;12.164;2023-05-16T08:03:14;14.85;72.75
68248;SHT30;55064;49.636;12.164;2023-05-16T08:05:40;15.00;71.47
68248;SHT30;55064;49.636;12.164;2023-05-16T08:08:05;15.18;73.64
68248;SHT30;55064;49.636;12.164;2023-05-16T08:10:31;15.22;71.04
68248;SHT30;55064;49.636;12.164;2023-05-16T08:12:56;15.29;72.05
68248;SHT30;55064;49.636;12.164;2023-05-16T08:15:26;15.34;72.81
68248;SHT30;55064;49.636;12.164;2023-05-16T08:17:55;15.46;71.74
68248;SHT30;55064;49.636;12.164;2023-05-16T08:20:21;15.65;72.11
68248;SHT30;55064;49.636;12.164;2023-05-16T08:22:46;15.84;71.28
68248;SHT30;55064;49.636;12.164;2023-05-16T08:25:12;15.84;71.63
68248;SHT30;55064;49.636;12.164;2023-05-16T08:27:37;15.81;71.75
68248;SHT30;55064;49.636;12.164;2023-05-16T08:30:03;15.78;71.80
68248;SHT30;55064;49.636;12.164;2023-05-16T08:32:33;15.86;71.32
68248;SHT30;55064;49.636;12.164;2023-05-16T08:34:59;15.82;70.78
68248;SHT30;55064;49.636;12.164;2023-05-16T08:37:24;15.92;72.09
68248;SHT30;55064;49.636;12.164;2023-05-16T08:39:50;15.94;71.04
68248;SHT30;55064;49.636;12.164;2023-05-16T08:42:15;15.95;70.51
68248;SHT30;55064;49.636;12.164;2023-05-16T08:44:40;16.08;71.41
68248;SHT30;55064;49.636;12.164;2023-05-16T08:47:11;16.16;70.46
68248;SHT30;55064;49.636;12.164;2023-05-16T08:49:39;16.10;70.13
68248;SHT30;55064;49.636;12.164;2023-05-16T08:52:08;16.24;71.58
68248;SHT30;55064;49.636;12.164;2023-05-16T08:54:38;16.29;69.93
68248;SHT30;55064;49.636;12.164;2023-05-16T08:57:05;16.20;69.19
68248;SHT30;55064;49.636;12.164;2023-05-16T08:59:33;16.09;69.72
68248;SHT30;55064;49.636;12.164;2023-05-16T09:02:00;16.16;69.43
68248;SHT30;55064;49.636;12.164;2023-05-16T09:04:25;16.36;68.59
68248;SHT30;55064;49.636;12.164;2023-05-16T09:06:53;16.33;67.78
68248;SHT30;55064;49.636;12.164;2023-05-16T09:09:18;16.43;67.62
68248;SHT30;55064;49.636;12.164;2023-05-16T09:11:44;16.32;67.88
68248;SHT30;55064;49.636;12.164;2023-05-16T09:14:09;16.40;68.21
68248;SHT30;55064;49.636;12.164;2023-05-16T09:16:36;16.24;68.23
68248;SHT30;55064;49.636;12.164;2023-05-16T09:19:01;16.33;67.09
68248;SHT30;55064;49.636;12.164;2023-05-16T09:21:31;16.44;68.01
68248;SHT30;55064;49.636;12.164;2023-05-16T09:24:03;16.56;66.76
68248;SHT30;55064;49.636;12.164;2023-05-16T09:26:35;16.63;67.04
68248;SHT30;55064;49.636;12.164;2023-05-16T09:29:09;16.61;67.43
68248;SHT30;55064;49.636;12.164;2023-05-16T09:31:38;16.65;67.23
68248;SHT30;55064;49.636;12.164;2023-05-16T09:34:09;16.43;66.27
68248;SHT30;55064;49.636;12.164;2023-05-16T09:36:36;16.49;67.47
68248;SHT30;55064;49.636;12.164;2023-05-16T09:39:09;16.65;67.92
68248;SHT30;55064;49.636;12.164;2023-05-16T09:41:35;16.61;67.68
68248;SHT30;55064;49.636;12.164;2023-05-16T09:44:04;16.77;66.64
68248;SHT30;55064;49.636;12.164;2023-05-16T09:46:33;16.78;66.98
68248;SHT30;55064;49.636;12.164;2023-05-16T09:48:59;16.94;66.75
68248;SHT30;55064;49.636;12.164;2023-05-16T09:51:25;16.77;67.48
68248;SHT30;55064;49.636;12.164;2023-05-16T09:53:54;16.65;67.40
68248;SHT30;55064;49.636;12.164;2023-05-16T09:56:23;16.64;68.16
68248;SHT30;55064;49.636;12.164;2023-05-16T09:58:51;16.92;68.58
68248;SHT30;55064;49.636;12.164;2023-05-16T10:01:17;16.94;67.46
68248;SHT30;55064;49.636;12.164;2023-05-16T10:03:44;16.75;67.94
68248;SHT30;55064;49.636;12.164;2023-05-16T10:06:10;16.99;68.31
68248;SHT30;55064;49.636;12.164;2023-05-16T10:08:37;17.12;66.67
68248;SHT30;55064;49.636;12.164;2023-05-16T10:11:07;17.23;66.70
68248;SHT30;55064;49.636;12.164;2023-05-16T10:13:34;17.20;65.10
68248;SHT30;55064;49.636;12.164;2023-05-16T10:16:05;17.18;66.12
68248;SHT30;55064;49.636;12.164;2023-05-16T10:18:39;17.16;65.59
68248;SHT30;55064;49.636;12.164;2023-05-16T10:21:08;16.95;67.09
68248;SHT30;55064;49.636;12.164;2023-05-16T10:23:37;16.96;66.39
68248;SHT30;55064;49.636;12.164;2023-05-16T10:26:07;16.92;64.15
68248;SHT30;55064;49.636;12.164;2023-05-16T10:28:35;16.89;65.55
68248;SHT30;55064;49.636;12.164;2023-05-16T10:31:01;17.16;63.44
68248;SHT30;55064;49.636;12.164;2023-05-16T10:33:27;17.51;63.15
68248;SHT30;55064;49.636;12.164;2023-05-16T10:35:55;17.59;64.45
68248;SHT30;55064;49.636;12.164;2023-05-16T10:38:21;17.70;63.45
68248;SHT30;55064;49.636;12.164;2023-05-16T10:40:49;17.98;62.89
68248;SHT30;55064;49.636;12.164;2023-05-16T10:43:26;18.18;63.29
68248;SHT30;55064;49.636;12.164;2023-05-16T10:46:09;18.46;62.18
68248;SHT30;55064;49.636;12.164;2023-05-16T10:48:39;18.46;63.43
68248;SHT30;55064;49.636;12.164;2023-05-16T10:51:34;18.53;61.67
68248;SHT30;55064;49.636;12.164;2023-05-16T10:54:08;18.52;61.07
68248;SHT30;55064;49.636;12.164;2023-05-16T10:56:35;18.29;61.45
68248;SHT30;55064;49.636;12.164;2023-05-16T10:59:23;18.53;62.97
68248;SHT30;55064;49.636;12.164;2023-05-16T11:01:54;18.63;61.14
68248;SHT30;55064;49.636;12.164;2023-05-16T11:04:20;18.74;61.89
68248;SHT30;55064;49.636;12.164;2023-05-16T11:06:49;18.88;62.01
68248;SHT30;55064;49.636;12.164;2023-05-16T11:09:19;19.23;62.95
68248;SHT30;55064;49.636;12.164;2023-05-16T11:11:56;19.23;60.49
68248;SHT30;55064;49.636;12.164;2023-05-16T11:19:33;19.01;61.06
68248;SHT30;55064;49.636;12.164;2023-05-16T11:24:58;18.98;61.20
68248;SHT30;55064;49.636;12.164;2023-05-16T11:30:11;18.15;62.21
68248;SHT30;55064;49.636;12.164;2023-05-16T11:32:39;18.09;62.76
68248;SHT30;55064;49.636;12.164;2023-05-16T11:35:10;18.26;61.87
68248;SHT30;55064;49.636;12.164;2023-05-16T11:37:36;18.30;62.42
68248;SHT30;55064;49.636;12.164;2023-05-16T11:40:04;18.22;61.92
68248;SHT30;55064;49.636;12.164;2023-05-16T11:42:42;17.78;62.96
68248;SHT30;55064;49.636;12.164;2023-05-16T11:45:10;17.66;62.53
68248;SHT30;55064;49.636;12.164;2023-05-16T11:47:37;17.34;62.89
68248;SHT30;55064;49.636;12.164;2023-05-16T11:50:05;16.74;65.48
68248;SHT30;55064;49.636;12.164;2023-05-16T11:52:31;16.77;65.49
68248;SHT30;55064;49.636;12.164;2023-05-16T11:54:58;16.82;64.70
68248;SHT30;55064;49.636;12.164;2023-05-16T11:57:26;16.88;64.22
68248;SHT30;55064;49.636;12.164;2023-05-16T11:59:52;16.95;65.60
68248;SHT30;55064;49.636;12.164;2023-05-16T12:02:17;16.94;64.92
68248;SHT30;55064;49.636;12.164;2023-05-16T12:04:45;16.70;64.50
68248;SHT30;55064;49.636;12.164;2023-05-16T12:07:13;16.58;64.70
68248;SHT30;55064;49.636;12.164;2023-05-16T12:09:51;15.95;66.28
68248;SHT30;55064;49.636;12.164;2023-05-16T12:12:19;16.33;65.59
68248;SHT30;55064;49.636;12.164;2023-05-16T12:14:53;16.33;65.07
68248;SHT30;55064;49.636;12.164;2023-05-16T12:17:21;16.49;64.89
68248;SHT30;55064;49.636;12.164;2023-05-16T12:19:47;16.26;65.23
68248;SHT30;55064;49.636;12.164;2023-05-16T12:22:19;16.40;65.93
68248;SHT30;55064;49.636;12.164;2023-05-16T12:24:45;16.61;65.28
68248;SHT30;55064;49.636;12.164;2023-05-16T12:27:11;16.60;65.68
68248;SHT30;55064;49.636;12.164;2023-05-16T12:29:39;16.56;64.68
68248;SHT30;55064;49.636;12.164;2023-05-16T12:32:07;16.46;64.65
68248;SHT30;55064;49.636;12.164;2023-05-16T12:34:33;16.43;65.77
68248;SHT30;55064;49.636;12.164;2023-05-16T12:36:58;16.27;65.81
68248;SHT30;55064;49.636;12.164;2023-05-16T12:39:35;16.27;65.23
68248;SHT30;55064;49.636;12.164;2023-05-16T12:42:05;16.15;66.03
68248;SHT30;55064;49.636;12.164;2023-05-16T12:44:31;16.17;65.79
68248;SHT30;55064;49.636;12.164;2023-05-16T12:46:56;16.10;65.55
68248;SHT30;55064;49.636;12.164;2023-05-16T12:49:22;15.98;65.39
68248;SHT30;55064;49.636;12.164;2023-05-16T12:51:53;15.84;66.39
68248;SHT30;55064;49.636;12.164;2023-05-16T12:54:19;15.79;66.53
68248;SHT30;55064;49.636;12.164;2023-05-16T12:56:47;15.64;66.68
68248;SHT30;55064;49.636;12.164;2023-05-16T12:59:14;15.39;66.48
68248;SHT30;55064;49.636;12.164;2023-05-16T13:01:40;15.43;67.69
68248;SHT30;55064;49.636;12.164;2023-05-16T13:04:09;15.37;67.80
68248;SHT30;55064;49.636;12.164;2023-05-16T13:06:40;15.22;67.71
68248;SHT30;55064;49.636;12.164;2023-05-16T13:09:06;15.06;67.34
68248;SHT30;55064;49.636;12.164;2023-05-16T13:11:31;15.03;68.37
68248;SHT30;55064;49.636;12.164;2023-05-16T13:13:57;14.89;68.67
68248;SHT30;55064;49.636;12.164;2023-05-16T13:16:23;14.71;68.00
68248;SHT30;55064;49.636;12.164;2023-05-16T13:18:51;14.61;69.13
68248;SHT30;55064;49.636;12.164;2023-05-16T13:21:16;14.63;68.48
68248;SHT30;55064;49.636;12.164;2023-05-16T13:23:41;14.58;68.93
68248;SHT30;55064;49.636;12.164;2023-05-16T13:26:07;14.42;69.45
68248;SHT30;55064;49.636;12.164;2023-05-16T13:28:33;14.40;69.33
68248;SHT30;55064;49.636;12.164;2023-05-16T13:31:00;14.29;69.30
68248;SHT30;55064;49.636;12.164;2023-05-16T13:33:28;14.13;69.23
68248;SHT30;55064;49.636;12.164;2023-05-16T13:35:54;14.06;69.41
68248;SHT30;55064;49.636;12.164;2023-05-16T13:38:23;14.03;69.80
68248;SHT30;55064;49.636;12.164;2023-05-16T13:40:53;14.03;70.01
68248;SHT30;55064;49.636;12.164;2023-05-16T13:43:18;13.89;69.72
68248;SHT30;55064;49.636;12.164;2023-05-16T13:45:57;13.81;69.96
68248;SHT30;55064;49.636;12.164;2023-05-16T13:48:23;13.66;70.37
68248;SHT30;55064;49.636;12.164;2023-05-16T13:50:49;13.65;70.42
68248;SHT30;55064;49.636;12.164;2023-05-16T13:53:16;13.54;70.82
68248;SHT30;55064;49.636;12.164;2023-05-16T13:55:42;13.51;70.03
68248;SHT30;55064;49.636;12.164;2023-05-16T13:58:09;13.75;70.99
68248;SHT30;55064;49.636;12.164;2023-05-16T14:00:35;13.85;69.93
68248;SHT30;55064;49.636;12.164;2023-05-16T14:03:00;13.98;69.44
68248;SHT30;55064;49.636;12.164;2023-05-16T14:05:26;13.93;69.36
68248;SHT30;55064;49.636;12.164;2023-05-16T14:07:52;13.95;69.54
68248;SHT30;55064;49.636;12.164;2023-05-16T14:10:24;13.99;69.93
68248;SHT30;55064;49.636;12.164;2023-05-16T14:12:50;13.99;69.11
68248;SHT30;55064;49.636;12.164;2023-05-16T14:15:17;14.12;68.62
68248;SHT30;55064;49.636;12.164;2023-05-16T14:17:43;13.96;67.60
68248;SHT30;55064;49.636;12.164;2023-05-16T14:20:12;13.96;67.76
68248;SHT30;55064;49.636;12.164;2023-05-16T14:22:38;14.06;68.46
68248;SHT30;55064;49.636;12.164;2023-05-16T14:25:06;14.21;68.68
68248;SHT30;55064;49.636;12.164;2023-05-16T14:27:34;14.33;69.06
68248;SHT30;55064;49.636;12.164;2023-05-16T14:29:59;14.29;68.35
68248;SHT30;55064;49.636;12.164;2023-05-16T14:32:25;14.17;68.05
68248;SHT30;55064;49.636;12.164;2023-05-16T14:34:51;14.20;68.17
68248;SHT30;55064;49.636;12.164;2023-05-16T14:37:17;14.21;68.13
68248;SHT30;55064;49.636;12.164;2023-05-16T14:39:43;14.26;67.58
68248;SHT30;55064;49.636;12.164;2023-05-16T14:42:11;14.31;68.50
68248;SHT30;55064;49.636;12.164;2023-05-16T14:44:37;14.31;67.57
68248;SHT30;55064;49.636;12.164;2023-05-16T14:47:02;14.20;67.76
68248;SHT30;55064;49.636;12.164;2023-05-16T14:49:29;14.29;68.57
68248;SHT30;55064;49.636;12.164;2023-05-16T14:51:55;14.09;68.81
68248;SHT30;55064;49.636;12.164;2023-05-16T14:54:20;13.98;68.85
68248;SHT30;55064;49.636;12.164;2023-05-16T14:56:47;13.92;69.57
68248;SHT30;55064;49.636;12.164;2023-05-16T14:59:12;13.83;69.53
68248;SHT30;55064;49.636;12.164;2023-05-16T15:01:40;13.65;69.20
68248;SHT30;55064;49.636;12.164;2023-05-16T15:04:06;13.72;69.11
68248;SHT30;55064;49.636;12.164;2023-05-16T15:06:32;13.72;68.09
68248;SHT30;55064;49.636;12.164;2023-05-16T15:09:02;13.66;68.59
68248;SHT30;55064;49.636;12.164;2023-05-16T15:11:31;13.69;69.75
68248;SHT30;55064;49.636;12.164;2023-05-16T15:13:56;13.69;69.30
68248;SHT30;55064;49.636;12.164;2023-05-16T15:16:23;13.65;68.86
68248;SHT30;55064;49.636;12.164;2023-05-16T15:18:49;13.57;69.34
68248;SHT30;55064;49.636;12.164;2023-05-16T15:21:15;13.62;70.35
68248;SHT30;55064;49.636;12.164;2023-05-16T15:23:46;13.62;69.90
68248;SHT30;55064;49.636;12.164;2023-05-16T15:26:15;13.75;69.97
68248;SHT30;55064;49.636;12.164;2023-05-16T15:28:41;13.59;69.67
68248;SHT30;55064;49.636;12.164;2023-05-16T15:31:07;13.61;70.28
68248;SHT30;55064;49.636;12.164;2023-05-16T15:33:33;13.51;69.95
68248;SHT30;55064;49.636;12.164;2023-05-16T15:35:58;13.47;70.44
68248;SHT30;55064;49.636;12.164;2023-05-16T15:38:26;13.41;70.95
68248;SHT30;55064;49.636;12.164;2023-05-16T15:40:51;13.30;71.04
68248;SHT30;55064;49.636;12.164;2023-05-16T15:43:21;13.30;71.49
68248;SHT30;55064;49.636;12.164;2023-05-16T15:45:49;13.31;71.32
68248;SHT30;55064;49.636;12.164;2023-05-16T15:48:14;13.30;71.51
68248;SHT30;55064;49.636;12.164;2023-05-16T15:50:40;13.21;71.87